Terminal Aerodrome Forecast
Issued by NWS

Home | Current Version | Previous Version | Text Only | Print | Product List | Glossary On
Versions: 1 2 3 4 5 6 7 8 9 10 11 12 13 14 15 16 17 18 19 20 21 22 23 24 25 26 27 28 29 30
000
FTAK31 PAFA 202338
TAFAGA
TAF
PAGA 202338Z 2100/2124 21012KT P6SM SCT035 BKN100 WS020/27030KT
     FM210900 18010KT P6SM SCT035 BKN050 BKN100
     FM211200 15008KT P6SM SCT035 BKN050 OVC100
     FM211500 12008KT 6SM -SN BR SCT015 BKN025 OVC035
     FM211800 12010KT 1 1/2SM -SN BR BKN007 OVC015=

USA.gov is the U.S. government's official web portal to all federal, state and local government web resources and services.